Time;durP1;ratioP1;P1;durP2;ratioP2;P2;SDS_P1;SDS_P2;PMS_P1;PMS_P2;Temp;Humidity;BMP_temperature;BMP_pressure;BME280_temperature;BME280_humidity;BME280_pressure;Samples;Min_cycle;Max_cycle;Signal;HPM_P1;HPM_P2
2022/06/21 00:00:36;;;;;;;1.77;0.50;;;20.40;41.80;;;;;;2293655;55;21025;-74
2022/06/21 00:03:10;;;;;;;1.48;0.40;;;20.30;41.80;;;;;;2289399;55;20936;-74
2022/06/21 00:05:42;;;;;;;0.55;0.30;;;20.30;41.90;;;;;;2361243;54;20977;-74
2022/06/21 00:08:17;;;;;;;1.40;0.60;;;20.30;41.90;;;;;;2296935;55;20965;-74
2022/06/21 00:10:44;;;;;;;0.60;0.30;;;20.30;42.00;;;;;;2287888;55;21000;-74
2022/06/21 00:13:28;;;;;;;1.62;0.50;;;20.20;41.90;;;;;;2291116;55;20996;-74
2022/06/21 00:15:57;;;;;;;0.75;0.40;;;20.20;42.00;;;;;;2290988;55;20928;-74
2022/06/21 00:18:24;;;;;;;1.30;0.65;;;20.20;41.90;;;;;;2381992;54;20941;-74
2022/06/21 00:20:50;;;;;;;1.10;0.40;;;20.10;41.90;;;;;;2276939;55;20972;-75
2022/06/21 00:23:27;;;;;;;1.12;0.47;;;20.10;42.00;;;;;;2290543;55;20940;-75
2022/06/21 00:25:54;;;;;;;1.20;0.50;;;20.10;42.20;;;;;;2292602;55;21960;-76
2022/06/21 00:28:22;;;;;;;1.27;0.50;;;20.10;42.10;;;;;;2294537;55;21009;-75
2022/06/21 00:30:49;;;;;;;0.98;0.60;;;20.00;42.10;;;;;;2291166;55;21017;-75
2022/06/21 00:33:17;;;;;;;2.90;0.50;;;20.00;42.10;;;;;;2524264;54;21027;-73
2022/06/21 00:35:46;;;;;;;1.27;0.50;;;20.00;42.20;;;;;;2291171;55;21032;-75
2022/06/21 00:38:19;;;;;;;1.00;0.47;;;19.90;42.20;;;;;;2525885;54;21045;-74
2022/06/21 00:40:45;;;;;;;1.65;0.55;;;19.90;42.30;;;;;;2290768;55;21451;-74
2022/06/21 00:43:19;;;;;;;0.90;0.40;;;19.90;42.30;;;;;;2358854;54;20932;-74
2022/06/21 00:45:46;;;;;;;1.30;0.50;;;19.90;42.50;;;;;;2290253;55;21453;-74
2022/06/21 00:48:24;;;;;;;1.37;0.50;;;19.80;42.40;;;;;;2290795;55;21532;-74
2022/06/21 00:51:26;;;;;;;2.37;0.50;;;19.80;42.60;;;;;;2289622;55;20936;-74
2022/06/21 00:53:56;;;;;;;1.92;0.70;;;19.80;42.80;;;;;;2272906;55;20936;-74
2022/06/21 00:56:38;;;;;;;1.08;0.60;;;19.70;42.50;;;;;;2291196;55;20978;-74
2022/06/21 00:59:23;;;;;;;1.98;0.70;;;19.70;42.70;;;;;;2294561;55;20961;-75
2022/06/21 01:01:54;;;;;;;2.35;0.93;;;19.70;42.90;;;;;;2290177;55;20932;-74
2022/06/21 01:04:54;;;;;;;2.03;0.60;;;19.60;42.50;;;;;;2292596;55;20957;-76
2022/06/21 01:07:22;;;;;;;1.62;0.62;;;19.60;42.90;;;;;;2292236;55;21573;-75
2022/06/21 01:09:52;;;;;;;1.10;0.40;;;19.50;42.60;;;;;;2490395;54;20976;-74
2022/06/21 01:12:27;;;;;;;1.23;0.60;;;19.50;42.70;;;;;;2346417;54;21061;-75
2022/06/21 01:15:08;;;;;;;0.88;0.40;;;19.50;43.00;;;;;;2291120;55;20976;-74
2022/06/21 01:17:35;;;;;;;1.50;0.60;;;19.40;42.90;;;;;;2471954;54;21483;-74
2022/06/21 01:20:06;;;;;;;1.50;0.50;;;19.40;42.90;;;;;;2289715;55;20948;-76
2022/06/21 01:25:22;;;;;;;1.70;0.57;;;19.30;43.00;;;;;;2374687;54;21477;-75
2022/06/21 01:27:51;;;;;;;0.95;0.50;;;19.40;43.70;;;;;;2348337;54;21032;-74
2022/06/21 01:30:17;;;;;;;1.52;0.60;;;19.30;43.40;;;;;;2290665;55;20996;-73
2022/06/21 01:32:43;;;;;;;1.90;0.43;;;19.30;43.50;;;;;;2525032;54;21047;-74
2022/06/21 01:35:13;;;;;;;1.00;0.40;;;19.30;43.60;;;;;;2291078;55;20940;-75
2022/06/21 01:37:40;;;;;;;1.37;0.50;;;19.30;43.70;;;;;;2290743;55;21485;-75
2022/06/21 01:40:20;;;;;;;1.00;0.50;;;19.30;43.60;;;;;;2525651;54;21061;-76
2022/06/21 01:42:53;;;;;;;1.12;0.50;;;19.30;44.00;;;;;;2310075;54;21739;-74
2022/06/21 01:45:29;;;;;;;1.37;0.70;;;19.30;44.00;;;;;;2300780;55;21518;-75
2022/06/21 01:48:11;;;;;;;0.90;0.45;;;19.30;44.10;;;;;;2366623;54;21087;-74
2022/06/21 01:50:38;;;;;;;1.12;0.50;;;19.30;44.10;;;;;;2290523;55;20992;-74
2022/06/21 01:53:05;;;;;;;1.10;0.50;;;19.20;43.90;;;;;;2524344;54;21067;-74
2022/06/21 01:55:46;;;;;;;1.02;0.50;;;19.20;43.80;;;;;;2292725;55;20937;-77
2022/06/21 01:58:15;;;;;;;1.95;0.60;;;19.20;43.90;;;;;;2286139;55;21234;-75
2022/06/21 02:00:58;;;;;;;2.60;0.68;;;19.20;43.80;;;;;;2292969;54;20947;-75
2022/06/21 02:03:28;;;;;;;1.90;0.55;;;19.10;44.40;;;;;;2295423;54;20954;-73
2022/06/21 02:05:55;;;;;;;1.30;0.57;;;19.10;43.90;;;;;;2294581;55;22006;-74
2022/06/21 02:08:27;;;;;;;2.08;0.73;;;19.10;44.00;;;;;;2329840;54;20986;-74
2022/06/21 02:10:56;;;;;;;1.85;0.60;;;19.10;44.20;;;;;;2413211;54;21472;-74
2022/06/21 02:13:28;;;;;;;1.27;0.57;;;19.10;44.10;;;;;;2524945;54;20989;-74
2022/06/21 02:16:04;;;;;;;1.00;0.50;;;19.00;44.00;;;;;;2292551;55;21035;-74
2022/06/21 02:18:31;;;;;;;0.90;0.40;;;19.00;44.30;;;;;;2290117;55;20940;-75
2022/06/21 02:21:05;;;;;;;1.30;0.60;;;19.00;44.20;;;;;;2422890;54;21006;-75
2022/06/21 02:23:31;;;;;;;2.25;0.68;;;19.00;44.30;;;;;;2294894;55;21254;-75
2022/06/21 02:25:59;;;;;;;1.40;0.50;;;19.00;44.20;;;;;;2325937;54;20976;-73
2022/06/21 02:28:28;;;;;;;0.93;0.50;;;18.90;44.20;;;;;;2290624;55;20956;-75
2022/06/21 02:30:57;;;;;;;1.58;0.70;;;18.90;44.20;;;;;;2290952;55;21272;-74
2022/06/21 02:33:28;;;;;;;1.58;0.80;;;18.90;44.30;;;;;;2290407;55;21020;-74
2022/06/21 02:35:59;;;;;;;1.62;0.60;;;18.90;44.40;;;;;;2312019;54;20980;-74
2022/06/21 02:38:51;;;;;;;1.17;0.50;;;18.90;44.40;;;;;;2292356;55;21480;-76
2022/06/21 02:41:22;;;;;;;1.65;0.52;;;18.80;44.70;;;;;;2293906;55;20993;-75
2022/06/21 02:43:51;;;;;;;;;;;18.80;44.30;;;;;;2397622;54;20996;-73
2022/06/21 02:46:31;;;;;;;1.25;0.40;;;18.80;44.50;;;;;;2290687;55;20116;-76
2022/06/21 02:49:21;;;;;;;1.17;0.40;;;18.80;44.20;;;;;;2288745;55;20976;-74
2022/06/21 02:52:32;;;;;;;1.58;0.62;;;18.70;44.60;;;;;;2291003;55;21000;-74
2022/06/21 02:58:41;;;;;;;1.52;0.70;;;18.70;44.80;;;;;;2499152;54;20949;-74
2022/06/21 03:01:18;;;;;;;1.35;0.55;;;18.70;44.70;;;;;;2469194;54;20941;-76
2022/06/21 03:03:45;;;;;;;1.60;0.55;;;18.70;45.00;;;;;;2291044;55;21043;-75
2022/06/21 03:06:13;;;;;;;1.50;0.70;;;18.60;44.80;;;;;;2290889;55;21551;-75
2022/06/21 03:08:55;;;;;;;2.50;0.60;;;18.60;45.00;;;;;;2290522;55;21122;-73
2022/06/21 03:11:22;;;;;;;1.50;0.50;;;18.60;45.30;;;;;;2304571;54;21506;-74
2022/06/21 03:13:49;;;;;;;1.45;0.60;;;18.60;45.10;;;;;;2290872;55;20940;-74
2022/06/21 03:16:18;;;;;;;1.37;0.52;;;18.60;45.10;;;;;;2294345;55;20933;-76
2022/06/21 03:18:51;;;;;;;1.73;0.73;;;18.60;45.20;;;;;;2290808;55;21431;-73
2022/06/21 03:21:27;;;;;;;1.60;0.60;;;18.60;45.40;;;;;;2290613;55;21013;-73
2022/06/21 03:23:53;;;;;;;1.48;0.70;;;18.60;45.50;;;;;;2290899;55;20961;-75
2022/06/21 03:26:20;;;;;;;2.03;0.73;;;18.60;45.50;;;;;;2290853;55;20961;-74
2022/06/21 03:28:46;;;;;;;1.23;0.65;;;18.60;45.70;;;;;;2291047;55;21409;-74
2022/06/21 03:31:25;;;;;;;2.58;0.70;;;18.70;45.80;;;;;;2291078;55;20944;-74
2022/06/21 03:33:54;;;;;;;1.98;0.73;;;18.70;46.10;;;;;;2294817;55;20958;-72
2022/06/21 03:36:22;;;;;;;1.83;0.70;;;18.70;45.90;;;;;;2515602;54;20988;-74
2022/06/21 03:38:58;;;;;;;1.75;0.70;;;18.70;45.80;;;;;;2290974;55;20982;-74
2022/06/21 03:41:43;;;;;;;1.65;0.60;;;18.70;45.90;;;;;;2291455;55;21020;-74
2022/06/21 03:44:47;;;;;;;3.72;1.00;;;18.70;45.70;;;;;;2291213;55;20993;-74
2022/06/21 03:47:24;;;;;;;1.37;0.70;;;18.80;46.20;;;;;;2290983;55;20951;-75
2022/06/21 03:49:57;;;;;;;1.67;0.60;;;18.70;45.80;;;;;;2304132;54;21037;-76
2022/06/21 03:52:41;;;;;;;1.45;0.60;;;18.80;45.70;;;;;;2302261;55;20973;-73
2022/06/21 03:56:09;;;;;;;1.77;0.60;;;18.70;45.90;;;;;;2284967;55;21529;-73
2022/06/21 04:05:35;;;;;;;1.42;0.60;;;18.70;46.10;;;;;;2320357;54;20965;-77
2022/06/21 04:08:09;;;;;;;1.37;0.60;;;18.80;46.30;;;;;;2443750;54;21806;-73
2022/06/21 04:10:47;;;;;;;1.75;0.77;;;18.80;45.40;;;;;;2290803;55;20932;-74
2022/06/21 04:13:48;;;;;;;1.70;0.70;;;18.70;45.70;;;;;;2295733;55;21029;-74
2022/06/21 04:16:39;;;;;;;3.80;1.00;;;18.70;45.90;;;;;;2291199;55;21115;-73
2022/06/21 04:19:19;;;;;;;2.40;0.62;;;18.70;45.80;;;;;;2487083;54;21024;-74
2022/06/21 04:21:53;;;;;;;1.85;0.70;;;18.70;45.80;;;;;;2291807;55;20977;-74
2022/06/21 04:27:58;;;;;;;2.30;0.80;;;18.70;45.80;;;;;;2292016;55;20985;-74
2022/06/21 04:30:31;;;;;;;1.30;0.60;;;18.70;46.20;;;;;;2525820;54;20948;-75
2022/06/21 04:33:06;;;;;;;1.55;0.68;;;18.70;45.70;;;;;;2525765;54;20941;-72
2022/06/21 04:35:37;;;;;;;1.35;0.60;;;18.70;45.90;;;;;;2290945;55;21417;-76
2022/06/21 04:44:58;;;;;;;1.73;0.70;;;18.70;45.90;;;;;;2306937;54;20960;-74
2022/06/21 04:47:51;;;;;;;1.90;0.70;;;18.80;46.20;;;;;;2290302;55;21954;-74
2022/06/21 04:51:08;;;;;;;1.62;0.77;;;18.70;46.10;;;;;;2292401;55;20949;-76
2022/06/21 04:54:56;;;;;;;1.77;0.68;;;18.80;47.10;;;;;;2289642;55;20938;-74
2022/06/21 04:57:24;;;;;;;1.65;0.75;;;18.80;47.20;;;;;;2298574;55;21013;-76
2022/06/21 05:00:11;;;;;;;1.92;0.80;;;18.80;46.80;;;;;;2503066;54;20941;-74
2022/06/21 05:02:42;;;;;;;1.95;0.80;;;18.80;47.40;;;;;;2293523;55;21045;-74
2022/06/21 05:05:20;;;;;;;2.37;0.85;;;18.90;47.20;;;;;;2288888;55;21016;-74
2022/06/21 05:08:35;;;;;;;2.20;0.90;;;18.90;47.50;;;;;;2293387;55;20937;-74
2022/06/21 05:11:01;;;;;;;1.83;0.85;;;18.90;47.70;;;;;;2524689;54;20956;-74
2022/06/21 05:13:49;;;;;;;2.10;1.05;;;18.90;47.40;;;;;;2409990;54;21350;-75
2022/06/21 05:16:35;;;;;;;2.22;0.75;;;19.00;48.10;;;;;;2290334;55;21048;-75
2022/06/21 05:19:29;;;;;;;3.72;1.00;;;19.00;48.00;;;;;;2290141;55;20968;-76
2022/06/21 05:22:02;;;;;;;1.70;0.77;;;19.00;48.00;;;;;;2271795;55;20964;-76
2022/06/21 05:24:29;;;;;;;2.05;0.90;;;19.10;47.60;;;;;;2292993;55;21440;-74
2022/06/21 05:27:04;;;;;;;2.00;0.80;;;19.20;47.50;;;;;;2291547;55;21946;-74
2022/06/21 05:29:53;;;;;;;2.35;0.80;;;19.20;47.50;;;;;;2290237;55;21864;-73
2022/06/21 05:32:28;;;;;;;2.05;0.73;;;19.20;47.50;;;;;;2290267;55;21032;-76
2022/06/21 05:34:58;;;;;;;1.35;0.70;;;19.30;47.50;;;;;;2289315;55;20970;-74
2022/06/21 05:37:40;;;;;;;1.62;0.70;;;19.30;47.50;;;;;;2293803;55;21209;-73
2022/06/21 05:41:36;;;;;;;1.92;0.70;;;19.40;47.70;;;;;;2290455;55;21012;-74
2022/06/21 05:44:41;;;;;;;3.80;0.80;;;19.40;47.50;;;;;;2272057;55;21390;-74
2022/06/21 05:47:18;;;;;;;4.32;1.00;;;19.50;47.60;;;;;;2290782;55;21004;-75
2022/06/21 05:49:45;;;;;;;1.77;0.75;;;19.60;47.50;;;;;;2461507;54;21413;-74
2022/06/21 05:52:26;;;;;;;2.53;0.90;;;19.60;47.20;;;;;;2290762;55;21033;-75
2022/06/21 05:55:12;;;;;;;2.10;0.82;;;19.60;47.40;;;;;;2300423;55;21352;-73
2022/06/21 05:59:10;;;;;;;1.30;0.60;;;19.60;47.30;;;;;;2286508;55;20913;-74
2022/06/21 06:01:53;;;;;;;1.45;0.60;;;19.70;47.20;;;;;;2290879;55;20952;-74
2022/06/21 06:04:58;;;;;;;1.58;0.70;;;19.80;47.20;;;;;;2290467;55;20944;-74
2022/06/21 06:07:29;;;;;;;;;;;19.80;47.50;;;;;;2294315;55;20956;-74
2022/06/21 06:09:56;;;;;;;2.00;0.68;;;19.80;47.20;;;;;;2293900;55;20116;-73
2022/06/21 06:12:45;;;;;;;1.58;0.60;;;19.80;46.90;;;;;;2293226;55;21005;-74
2022/06/21 06:15:22;;;;;;;3.67;1.02;;;19.80;47.10;;;;;;2339514;54;22038;-76
2022/06/21 06:18:38;;;;;;;2.22;0.77;;;19.90;47.50;;;;;;2289777;55;21014;-73
2022/06/21 06:21:22;;;;;;;4.20;0.82;;;19.90;47.90;;;;;;2294737;55;21530;-75
2022/06/21 06:23:57;;;;;;;1.85;0.85;;;20.00;47.50;;;;;;2293985;55;21716;-74
2022/06/21 06:26:26;;;;;;;3.00;0.80;;;20.10;47.70;;;;;;2297975;55;20997;-72
2022/06/21 06:29:14;;;;;;;1.40;0.60;;;20.10;47.70;;;;;;2290310;55;21461;-72
2022/06/21 06:32:13;;;;;;;1.85;0.80;;;20.20;48.00;;;;;;2291077;55;21304;-73
2022/06/21 06:34:42;;;;;;;2.40;0.77;;;20.20;48.10;;;;;;2293365;55;21047;-74
2022/06/21 06:37:31;;;;;;;2.55;1.00;;;20.30;47.90;;;;;;2277562;55;21077;-74
2022/06/21 06:39:58;;;;;;;1.92;0.60;;;20.40;48.10;;;;;;2292228;55;20969;-74
2022/06/21 06:42:27;;;;;;;2.28;0.90;;;20.40;47.70;;;;;;2289478;55;20952;-74
2022/06/21 06:45:04;;;;;;;1.65;0.62;;;20.50;47.80;;;;;;2291166;55;21737;-73
2022/06/21 06:47:39;;;;;;;1.90;0.70;;;20.60;47.80;;;;;;2290658;55;21040;-75
2022/06/21 06:50:38;;;;;;;2.55;1.17;;;20.60;47.70;;;;;;2290523;55;20951;-74
2022/06/21 06:53:15;;;;;;;1.95;0.90;;;20.70;47.90;;;;;;2292628;55;21088;-75
2022/06/21 06:55:48;;;;;;;1.65;0.85;;;20.80;47.70;;;;;;2402295;54;20952;-74
2022/06/21 06:58:46;;;;;;;;;;;20.80;47.50;;;;;;2296925;55;21002;-75
2022/06/21 07:01:39;;;;;;;2.30;0.65;;;20.90;47.50;;;;;;2525594;54;20072;-74
2022/06/21 07:04:05;;;;;;;;;;;20.90;47.30;;;;;;2427396;54;20984;-73
2022/06/21 07:06:47;;;;;;;2.25;0.60;;;21.00;47.30;;;;;;2290992;55;20085;-74
2022/06/21 07:09:29;;;;;;;1.40;0.60;;;21.00;47.40;;;;;;2294813;55;21009;-74
2022/06/21 07:12:21;;;;;;;1.60;0.60;;;21.10;47.60;;;;;;2439079;54;21004;-76
2022/06/21 07:14:48;;;;;;;1.67;0.77;;;21.10;47.50;;;;;;2291508;55;20951;-75
2022/06/21 07:17:18;;;;;;;3.42;0.80;;;21.20;47.50;;;;;;2294036;55;21012;-74
2022/06/21 07:19:45;;;;;;;2.42;0.80;;;21.20;47.60;;;;;;2525409;54;21021;-74
2022/06/21 07:22:20;;;;;;;1.15;0.62;;;21.30;47.50;;;;;;2508434;54;20956;-78
2022/06/21 07:25:12;;;;;;;1.87;0.65;;;21.30;47.70;;;;;;2290982;55;20952;-73
2022/06/21 07:27:39;;;;;;;1.80;0.85;;;21.40;47.70;;;;;;2290785;55;20953;-73
2022/06/21 07:30:09;;;;;;;1.77;0.70;;;21.40;47.60;;;;;;2290264;55;20929;-73
2022/06/21 07:32:38;;;;;;;2.05;0.80;;;21.50;47.70;;;;;;2271952;55;21044;-73
2022/06/21 07:35:15;;;;;;;1.98;0.80;;;21.50;47.70;;;;;;2456555;55;21029;-73
2022/06/21 07:37:44;;;;;;;3.10;0.75;;;21.60;48.00;;;;;;2290709;55;21056;-72
2022/06/21 07:40:35;;;;;;;2.12;0.80;;;21.70;47.90;;;;;;2515915;54;21020;-74
2022/06/21 07:43:13;;;;;;;1.77;0.80;;;21.70;48.00;;;;;;2290705;55;21036;-74
2022/06/21 07:45:45;;;;;;;2.53;0.90;;;21.80;47.80;;;;;;2290643;55;21020;-73
2022/06/21 07:48:18;;;;;;;1.50;0.70;;;21.90;47.70;;;;;;2293748;55;21081;-72
2022/06/21 07:51:03;;;;;;;3.72;0.88;;;21.90;47.70;;;;;;2451847;54;21751;-73
2022/06/21 07:53:33;;;;;;;3.17;0.70;;;22.00;48.30;;;;;;2290322;55;21563;-73
2022/06/21 07:56:49;;;;;;;1.08;0.60;;;22.00;47.60;;;;;;2289993;55;21432;-73
2022/06/21 07:59:43;;;;;;;2.50;0.80;;;22.10;47.60;;;;;;2348374;54;20928;-73
2022/06/21 08:08:22;;;;;;;3.30;0.70;;;22.30;47.70;;;;;;2332306;54;21456;-72
2022/06/21 08:10:57;;;;;;;1.92;0.70;;;22.30;47.60;;;;;;2295678;55;20989;-74
2022/06/21 08:13:25;;;;;;;2.83;0.90;;;22.40;47.80;;;;;;2295819;55;21189;-74
2022/06/21 08:16:14;;;;;;;1.50;0.70;;;22.40;47.80;;;;;;2420452;54;21567;-72
2022/06/21 08:18:48;;;;;;;2.20;0.90;;;22.50;47.90;;;;;;2291723;55;20968;-72
2022/06/21 08:21:20;;;;;;;2.10;0.95;;;22.60;47.80;;;;;;2297692;55;21348;-71
2022/06/21 08:23:53;;;;;;;2.40;1.00;;;22.60;47.80;;;;;;2295438;55;20964;-73
2022/06/21 08:26:28;;;;;;;2.50;0.90;;;22.70;47.90;;;;;;2291257;58;21084;-73
2022/06/21 08:29:08;;;;;;;1.55;0.75;;;22.80;47.90;;;;;;2289833;58;21131;-74
2022/06/21 08:31:39;;;;;;;2.05;0.80;;;22.90;48.10;;;;;;2282075;55;21072;-73
2022/06/21 08:34:20;;;;;;;2.30;0.95;;;22.90;48.00;;;;;;2279814;55;21001;-73
2022/06/21 08:36:53;;;;;;;2.28;0.80;;;23.00;48.20;;;;;;2290863;55;20969;-71
2022/06/21 08:39:47;;;;;;;4.57;1.00;;;23.10;48.00;;;;;;2287323;55;20969;-75
2022/06/21 08:45:41;;;;;;;2.08;0.75;;;23.10;48.00;;;;;;2296584;55;21514;-72
2022/06/21 08:48:35;;;;;;;1.92;0.70;;;23.30;47.90;;;;;;2265182;55;20984;-73
2022/06/21 08:53:57;;;;;;;2.45;0.80;;;23.40;47.90;;;;;;2284874;55;20964;-74
2022/06/21 08:56:49;;;;;;;2.12;0.90;;;23.60;47.90;;;;;;2282463;55;20976;-74
2022/06/21 08:59:43;;;;;;;2.33;1.00;;;23.70;48.00;;;;;;2365171;54;20981;-74
2022/06/21 09:04:24;;;;;;;3.58;1.10;;;23.70;48.40;;;;;;2284713;55;21946;-75
2022/06/21 09:07:58;;;;;;;2.45;1.15;;;23.90;48.30;;;;;;2285250;55;20953;-73
2022/06/21 09:11:05;;;;;;;2.10;1.02;;;24.00;48.30;;;;;;2303977;54;20985;-75
2022/06/21 09:15:31;;;;;;;2.50;0.90;;;24.10;49.10;;;;;;2282586;55;20992;-74
2022/06/21 09:21:07;;;;;;;3.45;0.93;;;24.30;48.30;;;;;;2282455;55;21060;-75
2022/06/21 09:28:40;;;;;;;2.90;1.02;;;24.60;48.00;;;;;;2310626;54;20978;-74
2022/06/21 09:35:29;;;;;;;2.33;0.75;;;24.80;48.00;;;;;;2281982;54;21107;-73
2022/06/21 09:41:31;;;;;;;3.20;1.15;;;25.00;47.90;;;;;;2284707;55;20961;-73
2022/06/21 09:44:27;;;;;;;2.70;0.88;;;25.20;47.70;;;;;;2281888;55;20960;-74
2022/06/21 09:47:09;;;;;;;4.68;1.20;;;25.30;47.80;;;;;;2285964;55;21998;-74
2022/06/21 09:51:28;;;;;;;3.47;1.23;;;25.40;47.70;;;;;;2281574;55;20948;-73
2022/06/21 09:54:16;;;;;;;3.80;1.08;;;25.50;47.70;;;;;;2282320;55;21063;-74
2022/06/21 09:57:05;;;;;;;2.67;1.17;;;25.70;47.60;;;;;;2470481;54;20964;-74
2022/06/21 09:59:47;;;;;;;2.92;1.50;;;25.80;47.80;;;;;;2313618;54;21637;-77
2022/06/21 10:02:39;;;;;;;2.90;1.20;;;25.90;47.80;;;;;;2285684;55;21348;-73
2022/06/21 10:07:04;;;;;;;2.90;1.10;;;25.90;47.80;;;;;;2284406;55;20961;-73
2022/06/21 10:09:41;;;;;;;2.97;1.10;;;26.10;47.70;;;;;;2282082;55;21028;-74
2022/06/21 10:12:34;;;;;;;2.30;1.20;;;26.30;47.40;;;;;;2281860;55;20952;-75
2022/06/21 10:15:21;;;;;;;2.62;1.20;;;26.30;47.20;;;;;;2282741;55;20957;-74
2022/06/21 10:19:28;;;;;;;2.20;1.10;;;26.30;47.20;;;;;;2281972;55;20956;-73
2022/06/21 10:23:42;;;;;;;2.58;1.12;;;26.50;47.20;;;;;;2281978;55;21919;-74
2022/06/21 10:29:56;;;;;;;3.58;1.23;;;26.50;47.10;;;;;;2473541;54;20972;-74
2022/06/21 10:32:54;;;;;;;2.53;1.02;;;26.90;47.10;;;;;;2281673;55;21060;-73
2022/06/21 10:39:49;;;;;;;2.60;1.10;;;27.00;46.90;;;;;;2281909;55;20924;-77
2022/06/21 10:42:48;;;;;;;2.08;1.10;;;27.10;46.80;;;;;;2281502;55;21513;-76
2022/06/21 10:46:19;;;;;;;2.67;1.25;;;27.40;46.30;;;;;;2287007;55;21963;-74
2022/06/21 10:52:12;;;;;;;2.95;1.25;;;27.50;46.40;;;;;;2285783;55;21001;-76
2022/06/21 10:55:01;;;;;;;2.17;1.00;;;27.50;46.20;;;;;;2331042;54;21019;-74
2022/06/21 10:59:27;;;;;;;3.17;1.00;;;27.70;46.30;;;;;;2294090;55;21033;-75
2022/06/21 11:02:13;;;;;;;2.40;1.00;;;27.90;46.10;;;;;;2461879;54;21989;-72
2022/06/21 11:06:28;;;;;;;2.60;0.93;;;27.90;46.10;;;;;;2278566;55;21586;-77
2022/06/21 11:09:53;;;;;;;2.25;1.05;;;28.00;46.00;;;;;;2282453;55;21029;-74
2022/06/21 11:12:54;;;;;;;1.92;1.00;;;28.10;45.90;;;;;;2283674;55;20972;-74
2022/06/21 11:16:03;;;;;;;2.92;1.20;;;28.20;45.90;;;;;;2281760;55;20976;-74
2022/06/21 11:18:50;;;;;;;2.60;1.15;;;28.30;45.60;;;;;;2281857;55;21028;-74
2022/06/21 11:23:10;;;;;;;3.20;1.40;;;28.40;45.50;;;;;;2516046;54;20961;-75
2022/06/21 11:25:57;;;;;;;2.62;1.08;;;28.50;45.30;;;;;;2282096;55;20920;-74
2022/06/21 11:28:49;;;;;;;2.15;1.10;;;28.60;45.10;;;;;;2280880;55;20936;-76
2022/06/21 11:33:52;;;;;;;1.92;0.90;;;28.70;45.00;;;;;;2286097;55;21005;-73
2022/06/21 11:39:32;;;;;;;2.87;0.90;;;28.70;45.00;;;;;;2289351;55;20942;-74
2022/06/21 11:42:50;;;;;;;4.35;1.30;;;28.80;44.90;;;;;;2286465;54;21949;-74
2022/06/21 11:45:39;;;;;;;2.60;1.15;;;28.90;44.60;;;;;;2283859;55;21344;-76
2022/06/21 11:50:23;;;;;;;2.60;1.10;;;29.00;44.90;;;;;;2515452;54;20988;-77
2022/06/21 11:53:19;;;;;;;2.37;1.15;;;29.00;45.10;;;;;;2320080;54;21928;-74
2022/06/21 11:56:04;;;;;;;3.53;1.35;;;29.10;44.50;;;;;;2282057;55;21001;-76
2022/06/21 12:00:11;;;;;;;3.67;1.58;;;29.10;44.50;;;;;;2391529;54;20956;-74
2022/06/21 12:03:17;;;;;;;2.70;1.33;;;29.10;44.60;;;;;;2283812;55;21017;-75
2022/06/21 12:05:56;;;;;;;3.90;1.60;;;29.10;44.20;;;;;;2282033;55;20972;-76
2022/06/21 12:08:39;;;;;;;2.55;1.65;;;29.10;44.20;;;;;;2281895;55;20948;-75
2022/06/21 12:12:18;;;;;;;3.95;1.40;;;29.20;44.10;;;;;;2299114;54;20973;-74
2022/06/21 12:15:44;;;;;;;2.20;1.20;;;29.20;44.30;;;;;;2282203;55;20976;-74
2022/06/21 12:18:20;;;;;;;2.97;1.50;;;29.20;43.90;;;;;;2515287;54;21128;-76
2022/06/21 12:21:48;;;;;;;3.65;1.60;;;29.30;44.10;;;;;;2515417;54;20944;-73
2022/06/21 12:24:16;;;;;;;3.30;1.30;;;29.30;44.10;;;;;;2287740;55;21979;-76
2022/06/21 12:26:43;;;;;;;3.62;1.50;;;29.30;44.30;;;;;;2481532;54;20981;-71
2022/06/21 12:29:18;;;;;;;2.78;1.35;;;29.40;44.30;;;;;;2426015;54;21096;-74
2022/06/21 12:31:50;;;;;;;5.10;1.80;;;29.40;44.10;;;;;;2277967;55;20959;-75
2022/06/21 12:34:46;;;;;;;2.95;1.52;;;29.50;44.00;;;;;;2286347;55;20978;-77
2022/06/21 12:37:55;;;;;;;3.10;1.60;;;29.50;44.00;;;;;;2281700;55;20996;-74
2022/06/21 12:42:10;;;;;;;5.53;1.50;;;29.60;44.10;;;;;;2515144;54;21008;-73
2022/06/21 12:45:13;;;;;;;3.00;1.40;;;29.70;43.90;;;;;;2285694;55;20964;-72
2022/06/21 12:48:07;;;;;;;3.25;1.60;;;29.80;44.00;;;;;;2283898;55;20977;-74
2022/06/21 12:53:53;;;;;;;6.22;1.60;;;29.90;44.00;;;;;;2281625;55;21937;-74
2022/06/21 12:57:01;;;;;;;2.25;1.30;;;30.00;43.90;;;;;;2282014;55;21820;-73
2022/06/21 13:02:23;;;;;;;3.47;1.42;;;30.10;43.70;;;;;;2284960;55;21092;-74
2022/06/21 13:06:48;;;;;;;2.87;1.40;;;30.20;43.50;;;;;;2282059;55;20932;-75
2022/06/21 13:11:14;;;;;;;3.05;1.23;;;30.40;43.50;;;;;;2281225;55;21124;-77
2022/06/21 13:14:14;;;;;;;2.85;1.27;;;30.50;43.70;;;;;;2364660;54;21984;-76
2022/06/21 13:20:08;;;;;;;2.60;1.20;;;30.50;43.20;;;;;;2281610;55;21016;-73
2022/06/21 13:27:03;;;;;;;3.45;1.40;;;30.60;43.00;;;;;;2259081;55;1410206;-74
2022/06/21 13:32:12;;;;;;;2.12;1.10;;;30.90;43.10;;;;;;2285688;55;21427;-73
2022/06/21 13:34:56;;;;;;;3.70;1.20;;;31.00;42.80;;;;;;2311867;54;22108;-74
2022/06/21 13:37:37;;;;;;;3.25;1.30;;;31.00;42.70;;;;;;2288744;55;21041;-76
2022/06/21 13:40:25;;;;;;;2.75;1.35;;;31.10;42.80;;;;;;2286229;55;21147;-73
2022/06/21 13:43:01;;;;;;;3.78;1.40;;;31.20;43.00;;;;;;2283245;55;20972;-74
2022/06/21 13:46:20;;;;;;;3.37;1.40;;;31.20;42.70;;;;;;2430626;54;21449;-74
2022/06/21 13:49:13;;;;;;;4.57;1.67;;;31.40;42.40;;;;;;2281702;55;20992;-74
2022/06/21 13:51:54;;;;;;;3.33;1.40;;;31.40;42.00;;;;;;2282005;55;21984;-73
2022/06/21 13:54:28;;;;;;;4.55;1.50;;;31.50;41.80;;;;;;2516142;54;22014;-76
2022/06/21 13:57:05;;;;;;;2.83;1.40;;;31.60;41.80;;;;;;2281832;55;20954;-73
2022/06/21 13:59:35;;;;;;;2.92;1.30;;;31.60;41.60;;;;;;2281495;55;21917;-74
2022/06/21 14:05:19;;;;;;;3.37;1.20;;;31.70;41.50;;;;;;2281966;55;21929;-71
2022/06/21 14:08:00;;;;;;;2.80;1.10;;;31.80;42.40;;;;;;2287721;55;21001;-74
2022/06/21 14:10:49;;;;;;;3.03;1.20;;;31.90;41.50;;;;;;2516006;54;20947;-73
2022/06/21 14:18:59;;;;;;;3.40;1.20;;;32.00;41.90;;;;;;2524666;54;21449;-73
2022/06/21 14:22:16;;;;;;;2.22;1.00;;;32.20;41.80;;;;;;2524368;54;20979;-74
2022/06/21 14:24:55;;;;;;;2.30;1.20;;;32.40;41.40;;;;;;2525178;54;20992;-74
2022/06/21 14:28:11;;;;;;;2.92;1.10;;;32.50;41.00;;;;;;2291124;55;20979;-74
2022/06/21 14:32:19;;;;;;;3.37;1.65;;;32.60;40.70;;;;;;2525091;54;20968;-74
2022/06/21 14:35:16;;;;;;;3.00;1.40;;;32.60;40.30;;;;;;2525538;54;20944;-74
2022/06/21 14:38:01;;;;;;;2.60;1.30;;;32.80;40.30;;;;;;2334089;54;21046;-76
2022/06/21 14:40:41;;;;;;;3.67;1.80;;;32.80;39.80;;;;;;2290882;55;21984;-75
2022/06/21 14:43:28;;;;;;;2.75;1.40;;;32.90;40.00;;;;;;2293169;55;20969;-74
2022/06/21 14:50:39;;;;;;;2.97;1.40;;;32.90;39.70;;;;;;2290821;55;21032;-73
2022/06/21 14:53:32;;;;;;;2.30;0.88;;;33.00;39.90;;;;;;2299891;54;20984;-75
2022/06/21 14:56:55;;;;;;;2.40;1.10;;;33.20;39.60;;;;;;2286447;55;21421;-74
2022/06/21 15:04:26;;;;;;;4.55;1.50;;;33.20;39.50;;;;;;2352475;54;20968;-74
2022/06/21 15:07:14;;;;;;;2.70;1.02;;;33.30;39.70;;;;;;2288338;55;21020;-73
2022/06/21 15:09:46;;;;;;;2.45;1.27;;;33.40;39.30;;;;;;2365964;54;21044;-71
2022/06/21 15:12:21;;;;;;;3.00;1.40;;;33.40;39.20;;;;;;2290592;55;21016;-73
2022/06/21 15:14:53;;;;;;;2.70;1.20;;;33.50;38.90;;;;;;2328583;54;20937;-74
2022/06/21 15:17:37;;;;;;;3.73;1.20;;;33.50;39.00;;;;;;2295942;55;21830;-76
2022/06/21 15:20:13;;;;;;;3.30;1.60;;;33.50;38.40;;;;;;2289370;55;21492;-74
2022/06/21 15:25:19;;;;;;;5.15;1.20;;;33.50;38.60;;;;;;2288287;55;20960;-73
2022/06/21 15:29:40;;;;;;;2.72;1.23;;;33.50;38.40;;;;;;2298976;54;21480;-73
2022/06/21 15:32:12;;;;;;;2.60;1.12;;;33.60;38.30;;;;;;2289501;55;21421;-73
2022/06/21 15:34:50;;;;;;;3.22;1.42;;;33.50;38.90;;;;;;2454690;54;21028;-76
2022/06/21 15:37:29;;;;;;;3.08;1.10;;;33.60;38.00;;;;;;2289751;55;21363;-74
2022/06/21 15:40:22;;;;;;;3.15;1.42;;;33.50;37.80;;;;;;2455907;54;20960;-75
2022/06/21 15:43:08;;;;;;;3.97;1.50;;;33.50;37.70;;;;;;2290560;55;21549;-76
2022/06/21 15:45:58;;;;;;;2.33;1.30;;;33.50;37.90;;;;;;2415046;54;20956;-74
2022/06/21 15:52:44;;;;;;;3.12;1.30;;;33.50;37.80;;;;;;2292688;55;21075;-74
2022/06/21 16:00:16;;;;;;;2.78;1.37;;;33.50;37.60;;;;;;2290343;55;21007;-74
2022/06/21 16:02:50;;;;;;;3.28;1.10;;;33.60;37.90;;;;;;2290289;55;20964;-75
2022/06/21 16:05:52;;;;;;;3.05;1.37;;;33.60;37.50;;;;;;2290626;55;20952;-75
2022/06/21 16:08:21;;;;;;;2.92;1.42;;;33.50;37.30;;;;;;2524883;54;20980;-75
2022/06/21 16:10:49;;;;;;;3.65;1.58;;;33.50;37.60;;;;;;2289859;55;20968;-77
2022/06/21 16:13:22;;;;;;;4.80;1.80;;;33.50;38.00;;;;;;2289991;55;21059;-74
2022/06/21 16:15:59;;;;;;;3.55;1.65;;;33.50;37.30;;;;;;2289424;55;21748;-77
2022/06/21 16:18:29;;;;;;;4.32;1.62;;;33.50;37.20;;;;;;2290901;55;20972;-74
2022/06/21 16:20:55;;;;;;;3.20;1.60;;;33.50;37.20;;;;;;2290803;55;21005;-73
2022/06/21 16:23:31;;;;;;;3.08;1.67;;;33.50;37.10;;;;;;2290337;55;20960;-77